sensor_id;sensor_type;location;lat;lon;timestamp;pressure;altitude;pressure_sealevel;temperature;humidity
41234;BME280;26968;42.686;23.352;2023-04-10T00:00:43;95369.03;;;9.04;63.55
41234;BME280;26968;42.686;23.352;2023-04-10T00:03:10;95370.94;;;9.13;63.43
41234;BME280;26968;42.686;23.352;2023-04-10T00:05:35;95331.16;;;8.88;62.92
41234;BME280;26968;42.686;23.352;2023-04-10T00:08:01;95297.75;;;8.62;63.75
41234;BME280;26968;42.686;23.352;2023-04-10T00:10:27;95303.78;;;8.62;63.50
41234;BME280;26968;42.686;23.352;2023-04-10T00:12:56;95364.56;;;9.09;62.79
41234;BME280;26968;42.686;23.352;2023-04-10T00:15:21;95338.59;;;9.01;62.96
41234;BME280;26968;42.686;23.352;2023-04-10T00:17:47;95333.75;;;8.78;63.23
41234;BME280;26968;42.686;23.352;2023-04-10T00:20:14;95328.50;;;8.83;62.97
41234;BME280;26968;42.686;23.352;2023-04-10T00:22:40;95326.59;;;8.68;63.28
41234;BME280;26968;42.686;23.352;2023-04-10T00:25:07;95352.88;;;8.95;62.80
41234;BME280;26968;42.686;23.352;2023-04-10T00:27:32;95341.19;;;8.81;62.64
41234;BME280;26968;42.686;23.352;2023-04-10T00:29:58;95346.41;;;8.71;62.07
41234;BME280;26968;42.686;23.352;2023-04-10T00:32:23;95342.47;;;8.73;59.71
41234;BME280;26968;42.686;23.352;2023-04-10T00:34:48;95294.72;;;8.38;58.52
41234;BME280;26968;42.686;23.352;2023-04-10T00:37:14;95338.28;;;8.82;57.63
41234;BME280;26968;42.686;23.352;2023-04-10T00:39:39;95288.09;;;8.40;56.73
41234;BME280;26968;42.686;23.352;2023-04-10T00:42:05;95348.53;;;8.69;57.00
41234;BME280;26968;42.686;23.352;2023-04-10T00:44:33;95343.25;;;8.74;56.37
41234;BME280;26968;42.686;23.352;2023-04-10T00:47:02;95316.25;;;8.67;55.87
41234;BME280;26968;42.686;23.352;2023-04-10T00:49:28;95305.38;;;8.58;56.10
41234;BME280;26968;42.686;23.352;2023-04-10T00:51:54;95319.16;;;8.65;56.21
41234;BME280;26968;42.686;23.352;2023-04-10T00:54:20;95307.47;;;8.51;56.97
41234;BME280;26968;42.686;23.352;2023-04-10T00:56:46;95323.66;;;8.65;57.28
41234;BME280;26968;42.686;23.352;2023-04-10T00:59:13;95337.72;;;8.75;58.27
41234;BME280;26968;42.686;23.352;2023-04-10T01:01:39;95322.34;;;8.67;59.42
41234;BME280;26968;42.686;23.352;2023-04-10T01:04:05;95297.22;;;8.65;59.55
41234;BME280;26968;42.686;23.352;2023-04-10T01:09:16;95322.41;;;8.82;62.64
41234;BME280;26968;42.686;23.352;2023-04-10T01:12:00;95275.72;;;8.46;64.91
41234;BME280;26968;42.686;23.352;2023-04-10T01:15:03;95312.59;;;8.78;65.01
41234;BME280;26968;42.686;23.352;2023-04-10T01:17:34;95326.66;;;8.83;66.09
41234;BME280;26968;42.686;23.352;2023-04-10T01:20:08;95301.50;;;8.76;66.21
41234;BME280;26968;42.686;23.352;2023-04-10T01:25:37;95325.59;;;8.84;67.13
41234;BME280;26968;42.686;23.352;2023-04-10T01:30:56;95299.66;;;8.76;68.07
41234;BME280;26968;42.686;23.352;2023-04-10T01:33:27;95316.81;;;8.74;68.47
41234;BME280;26968;42.686;23.352;2023-04-10T01:35:57;95313.44;;;8.83;68.02
41234;BME280;26968;42.686;23.352;2023-04-10T01:38:27;95294.63;;;8.75;67.65
41234;BME280;26968;42.686;23.352;2023-04-10T01:40:54;95294.38;;;8.76;68.52
41234;BME280;26968;42.686;23.352;2023-04-10T01:43:21;95272.88;;;8.63;68.34
41234;BME280;26968;42.686;23.352;2023-04-10T01:45:48;95289.56;;;8.68;67.98
41234;BME280;26968;42.686;23.352;2023-04-10T01:48:15;95319.78;;;8.93;67.97
41234;BME280;26968;42.686;23.352;2023-04-10T01:50:44;95307.09;;;8.84;67.50
41234;BME280;26968;42.686;23.352;2023-04-10T01:53:10;95281.41;;;8.75;68.16
41234;BME280;26968;42.686;23.352;2023-04-10T01:55:36;95286.94;;;8.78;67.66
41234;BME280;26968;42.686;23.352;2023-04-10T01:58:02;95335.94;;;8.96;67.88
41234;BME280;26968;42.686;23.352;2023-04-10T02:00:29;95316.56;;;8.75;67.00
41234;BME280;26968;42.686;23.352;2023-04-10T02:02:54;95285.88;;;8.69;66.63
41234;BME280;26968;42.686;23.352;2023-04-10T02:05:20;95267.59;;;8.63;66.99
41234;BME280;26968;42.686;23.352;2023-04-10T02:08:01;95324.31;;;8.97;66.84
41234;BME280;26968;42.686;23.352;2023-04-10T02:10:53;95287.44;;;8.70;67.54
41234;BME280;26968;42.686;23.352;2023-04-10T02:13:21;95292.16;;;8.53;66.99
41234;BME280;26968;42.686;23.352;2023-04-10T02:15:49;95292.19;;;8.63;67.59
41234;BME280;26968;42.686;23.352;2023-04-10T02:18:15;95297.28;;;8.80;66.88
41234;BME280;26968;42.686;23.352;2023-04-10T02:20:43;95292.78;;;8.80;67.69
41234;BME280;26968;42.686;23.352;2023-04-10T02:23:08;95293.59;;;8.86;67.00
41234;BME280;26968;42.686;23.352;2023-04-10T02:25:34;95291.47;;;8.83;67.27
41234;BME280;26968;42.686;23.352;2023-04-10T02:28:06;95267.91;;;8.76;66.92
41234;BME280;26968;42.686;23.352;2023-04-10T02:30:32;95253.84;;;8.66;66.62
41234;BME280;26968;42.686;23.352;2023-04-10T02:32:58;95256.50;;;8.66;67.64
41234;BME280;26968;42.686;23.352;2023-04-10T02:35:24;95292.28;;;8.88;67.61
41234;BME280;26968;42.686;23.352;2023-04-10T02:37:50;95279.06;;;8.88;67.62
41234;BME280;26968;42.686;23.352;2023-04-10T02:40:16;95239.53;;;8.57;67.23
41234;BME280;26968;42.686;23.352;2023-04-10T02:42:41;95252.81;;;8.67;67.69
41234;BME280;26968;42.686;23.352;2023-04-10T02:45:08;95271.63;;;8.80;67.51
41234;BME280;26968;42.686;23.352;2023-04-10T02:47:33;95277.16;;;8.79;67.62
41234;BME280;26968;42.686;23.352;2023-04-10T02:49:59;95240.88;;;8.59;67.66
41234;BME280;26968;42.686;23.352;2023-04-10T02:52:24;95256.50;;;8.61;67.19
41234;BME280;26968;42.686;23.352;2023-04-10T02:54:50;95233.94;;;8.43;66.19
41234;BME280;26968;42.686;23.352;2023-04-10T02:57:16;95221.53;;;8.43;66.15
41234;BME280;26968;42.686;23.352;2023-04-10T02:59:41;95209.59;;;8.36;66.35
41234;BME280;26968;42.686;23.352;2023-04-10T03:02:07;95211.44;;;8.35;66.36
41234;BME280;26968;42.686;23.352;2023-04-10T03:04:33;95241.38;;;8.56;66.53
41234;BME280;26968;42.686;23.352;2023-04-10T03:06:59;95267.81;;;8.51;66.22
41234;BME280;26968;42.686;23.352;2023-04-10T03:09:24;95239.22;;;8.38;66.38
41234;BME280;26968;42.686;23.352;2023-04-10T03:11:50;95246.66;;;8.46;66.20
41234;BME280;26968;42.686;23.352;2023-04-10T03:14:16;95228.59;;;8.33;66.34
41234;BME280;26968;42.686;23.352;2023-04-10T03:16:42;95219.28;;;8.20;66.93
41234;BME280;26968;42.686;23.352;2023-04-10T03:19:07;95225.63;;;8.19;66.62
41234;BME280;26968;42.686;23.352;2023-04-10T03:21:32;95220.81;;;8.06;66.15
41234;BME280;26968;42.686;23.352;2023-04-10T03:23:58;95257.16;;;8.31;65.97
41234;BME280;26968;42.686;23.352;2023-04-10T03:26:23;95270.03;;;8.27;66.02
41234;BME280;26968;42.686;23.352;2023-04-10T03:28:49;95239.03;;;8.07;65.60
41234;BME280;26968;42.686;23.352;2023-04-10T03:31:15;95237.44;;;8.06;65.72
41234;BME280;26968;42.686;23.352;2023-04-10T03:33:40;95234.00;;;8.01;65.31
41234;BME280;26968;42.686;23.352;2023-04-10T03:36:06;95276.91;;;8.23;65.64
41234;BME280;26968;42.686;23.352;2023-04-10T03:38:31;95277.41;;;8.20;65.88
41234;BME280;26968;42.686;23.352;2023-04-10T03:40:57;95257.75;;;8.01;66.69
41234;BME280;26968;42.686;23.352;2023-04-10T03:43:23;95243.19;;;7.93;66.57
41234;BME280;26968;42.686;23.352;2023-04-10T03:45:49;95283.47;;;8.16;66.96
41234;BME280;26968;42.686;23.352;2023-04-10T03:48:14;95260.91;;;7.98;67.05
41234;BME280;26968;42.686;23.352;2023-04-10T03:50:40;95237.59;;;7.85;66.47
41234;BME280;26968;42.686;23.352;2023-04-10T03:53:06;95257.44;;;7.92;67.19
41234;BME280;26968;42.686;23.352;2023-04-10T03:55:31;95266.41;;;7.91;67.07
41234;BME280;26968;42.686;23.352;2023-04-10T03:57:56;95281.53;;;8.01;66.88
41234;BME280;26968;42.686;23.352;2023-04-10T04:00:23;95292.47;;;7.83;67.55
41234;BME280;26968;42.686;23.352;2023-04-10T04:02:48;95297.03;;;7.92;67.34
41234;BME280;26968;42.686;23.352;2023-04-10T04:05:18;95274.13;;;7.66;67.71
41234;BME280;26968;42.686;23.352;2023-04-10T04:07:44;95270.34;;;7.57;67.55
41234;BME280;26968;42.686;23.352;2023-04-10T04:10:09;95272.19;;;7.56;67.25
41234;BME280;26968;42.686;23.352;2023-04-10T04:12:35;95301.91;;;7.42;67.97
41234;BME280;26968;42.686;23.352;2023-04-10T04:15:00;95271.47;;;7.34;67.97
41234;BME280;26968;42.686;23.352;2023-04-10T04:17:26;95306.72;;;7.50;68.03
41234;BME280;26968;42.686;23.352;2023-04-10T04:19:51;95283.94;;;7.39;67.83
41234;BME280;26968;42.686;23.352;2023-04-10T04:22:17;95282.34;;;7.38;67.87
41234;BME280;26968;42.686;23.352;2023-04-10T04:24:42;95261.94;;;7.28;68.09
41234;BME280;26968;42.686;23.352;2023-04-10T04:27:08;95268.56;;;7.30;67.82
41234;BME280;26968;42.686;23.352;2023-04-10T04:29:33;95268.81;;;7.29;68.35
41234;BME280;26968;42.686;23.352;2023-04-10T04:31:58;95268.91;;;7.39;68.69
41234;BME280;26968;42.686;23.352;2023-04-10T04:34:24;95276.38;;;7.47;68.86
41234;BME280;26968;42.686;23.352;2023-04-10T04:36:49;95290.19;;;7.59;68.96
41234;BME280;26968;42.686;23.352;2023-04-10T04:39:15;95287.53;;;7.59;69.11
41234;BME280;26968;42.686;23.352;2023-04-10T04:41:40;95246.72;;;7.40;69.04
41234;BME280;26968;42.686;23.352;2023-04-10T04:44:06;95258.16;;;7.46;69.44
41234;BME280;26968;42.686;23.352;2023-04-10T04:46:31;95314.44;;;7.88;69.32
41234;BME280;26968;42.686;23.352;2023-04-10T04:48:57;95312.31;;;7.85;69.30
41234;BME280;26968;42.686;23.352;2023-04-10T04:51:22;95278.63;;;7.65;69.38
41234;BME280;26968;42.686;23.352;2023-04-10T04:53:48;95218.38;;;7.25;69.14
41234;BME280;26968;42.686;23.352;2023-04-10T04:56:14;95313.22;;;8.01;69.40
41234;BME280;26968;42.686;23.352;2023-04-10T04:58:39;95287.19;;;7.83;68.81
41234;BME280;26968;42.686;23.352;2023-04-10T05:01:05;95306.84;;;7.97;68.50
41234;BME280;26968;42.686;23.352;2023-04-10T05:03:30;95267.59;;;7.73;68.63
41234;BME280;26968;42.686;23.352;2023-04-10T05:05:56;95293.56;;;7.87;69.28
41234;BME280;26968;42.686;23.352;2023-04-10T05:08:22;95331.28;;;8.19;68.46
41234;BME280;26968;42.686;23.352;2023-04-10T05:10:47;95328.94;;;8.23;68.14
41234;BME280;26968;42.686;23.352;2023-04-10T05:13:13;95287.88;;;8.05;68.48
41234;BME280;26968;42.686;23.352;2023-04-10T05:15:42;95319.44;;;8.22;67.79
41234;BME280;26968;42.686;23.352;2023-04-10T05:18:07;95280.91;;;7.94;67.88
41234;BME280;26968;42.686;23.352;2023-04-10T05:20:36;95324.00;;;8.31;67.65
41234;BME280;26968;42.686;23.352;2023-04-10T05:23:01;95292.94;;;8.11;67.61
41234;BME280;26968;42.686;23.352;2023-04-10T05:25:27;95332.97;;;8.30;67.10
41234;BME280;26968;42.686;23.352;2023-04-10T05:27:52;95326.44;;;8.43;67.17
41234;BME280;26968;42.686;23.352;2023-04-10T05:30:18;95312.66;;;8.36;66.77
41234;BME280;26968;42.686;23.352;2023-04-10T05:32:43;95334.16;;;8.55;66.55
41234;BME280;26968;42.686;23.352;2023-04-10T05:35:10;95276.91;;;8.28;65.52
41234;BME280;26968;42.686;23.352;2023-04-10T05:37:35;95331.84;;;8.63;65.96
41234;BME280;26968;42.686;23.352;2023-04-10T05:40:01;95307.47;;;8.56;65.67
41234;BME280;26968;42.686;23.352;2023-04-10T05:42:27;95308.81;;;8.59;65.05
41234;BME280;26968;42.686;23.352;2023-04-10T05:44:53;95318.09;;;8.66;64.84
41234;BME280;26968;42.686;23.352;2023-04-10T05:47:18;95328.19;;;8.74;64.16
41234;BME280;26968;42.686;23.352;2023-04-10T05:49:43;95333.50;;;8.79;64.06
41234;BME280;26968;42.686;23.352;2023-04-10T05:52:09;95336.13;;;8.79;63.88
41234;BME280;26968;42.686;23.352;2023-04-10T05:54:34;95293.50;;;8.61;64.14
41234;BME280;26968;42.686;23.352;2023-04-10T05:57:00;95296.16;;;8.66;63.45
41234;BME280;26968;42.686;23.352;2023-04-10T05:59:26;95328.19;;;8.74;62.48
41234;BME280;26968;42.686;23.352;2023-04-10T06:01:51;95307.78;;;8.70;62.78
41234;BME280;26968;42.686;23.352;2023-04-10T06:04:17;95337.25;;;8.94;62.46
41234;BME280;26968;42.686;23.352;2023-04-10T06:06:42;95284.28;;;8.68;61.86
41234;BME280;26968;42.686;23.352;2023-04-10T06:09:08;95313.72;;;8.92;61.84
41234;BME280;26968;42.686;23.352;2023-04-10T06:11:33;95286.38;;;8.61;62.26
41234;BME280;26968;42.686;23.352;2023-04-10T06:13:59;95314.28;;;8.99;62.12
41234;BME280;26968;42.686;23.352;2023-04-10T06:16:25;95276.16;;;8.90;61.71
41234;BME280;26968;42.686;23.352;2023-04-10T06:18:50;95331.81;;;9.25;61.32
41234;BME280;26968;42.686;23.352;2023-04-10T06:21:16;95291.50;;;8.93;60.98
41234;BME280;26968;42.686;23.352;2023-04-10T06:23:42;95329.69;;;9.33;61.28
41234;BME280;26968;42.686;23.352;2023-04-10T06:26:07;95324.19;;;9.44;61.22
41234;BME280;26968;42.686;23.352;2023-04-10T06:28:33;95280.72;;;9.25;60.43
41234;BME280;26968;42.686;23.352;2023-04-10T06:30:59;95327.66;;;9.60;60.06
41234;BME280;26968;42.686;23.352;2023-04-10T06:33:27;95321.81;;;9.73;60.27
41234;BME280;26968;42.686;23.352;2023-04-10T06:35:52;95322.09;;;9.72;59.70
41234;BME280;26968;42.686;23.352;2023-04-10T06:38:18;95294.00;;;9.65;59.70
41234;BME280;26968;42.686;23.352;2023-04-10T06:40:43;95312.03;;;9.84;59.75
41234;BME280;26968;42.686;23.352;2023-04-10T06:43:09;95317.06;;;9.95;59.88
41234;BME280;26968;42.686;23.352;2023-04-10T06:45:34;95293.50;;;9.84;59.41
41234;BME280;26968;42.686;23.352;2023-04-10T06:48:00;95299.84;;;9.98;58.94
41234;BME280;26968;42.686;23.352;2023-04-10T06:50:25;95305.66;;;10.10;59.06
41234;BME280;26968;42.686;23.352;2023-04-10T06:52:51;95315.75;;;9.98;58.76
41234;BME280;26968;42.686;23.352;2023-04-10T06:55:20;95314.13;;;10.07;57.71
41234;BME280;26968;42.686;23.352;2023-04-10T06:57:45;95323.69;;;10.28;56.91
41234;BME280;26968;42.686;23.352;2023-04-10T07:00:11;95341.19;;;10.34;57.49
41234;BME280;26968;42.686;23.352;2023-04-10T07:02:36;95337.19;;;10.42;56.76
41234;BME280;26968;42.686;23.352;2023-04-10T07:05:01;95286.84;;;10.12;56.56
41234;BME280;26968;42.686;23.352;2023-04-10T07:07:27;95323.94;;;10.37;56.91
41234;BME280;26968;42.686;23.352;2023-04-10T07:09:53;95274.38;;;10.12;56.80
41234;BME280;26968;42.686;23.352;2023-04-10T07:12:18;95335.81;;;10.55;56.89
41234;BME280;26968;42.686;23.352;2023-04-10T07:14:44;95276.22;;;10.17;56.32
41234;BME280;26968;42.686;23.352;2023-04-10T07:17:09;95294.53;;;10.28;55.61
41234;BME280;26968;42.686;23.352;2023-04-10T07:19:34;95322.34;;;10.41;56.50
41234;BME280;26968;42.686;23.352;2023-04-10T07:22:02;95320.22;;;10.43;56.04
41234;BME280;26968;42.686;23.352;2023-04-10T07:24:27;95312.50;;;10.47;56.23
41234;BME280;26968;42.686;23.352;2023-04-10T07:26:52;95340.59;;;10.68;56.41
41234;BME280;26968;42.686;23.352;2023-04-10T07:29:19;95340.41;;;10.29;56.81
41234;BME280;26968;42.686;23.352;2023-04-10T07:31:44;95310.69;;;10.27;57.13
41234;BME280;26968;42.686;23.352;2023-04-10T07:34:10;95321.28;;;10.32;56.61
41234;BME280;26968;42.686;23.352;2023-04-10T07:36:36;95306.72;;;10.14;56.62
41234;BME280;26968;42.686;23.352;2023-04-10T07:39:02;95318.38;;;10.23;57.28
41234;BME280;26968;42.686;23.352;2023-04-10T07:41:27;95318.66;;;10.22;56.53
41234;BME280;26968;42.686;23.352;2023-04-10T07:43:53;95309.91;;;10.26;57.30
41234;BME280;26968;42.686;23.352;2023-04-10T07:46:18;95314.34;;;10.46;56.71
41234;BME280;26968;42.686;23.352;2023-04-10T07:48:44;95341.63;;;10.72;56.46
41234;BME280;26968;42.686;23.352;2023-04-10T07:51:11;95315.16;;;10.52;56.28
41234;BME280;26968;42.686;23.352;2023-04-10T07:53:36;95316.13;;;10.76;56.01
41234;BME280;26968;42.686;23.352;2023-04-10T07:56:02;95336.50;;;10.96;55.61
41234;BME280;26968;42.686;23.352;2023-04-10T07:58:27;95309.75;;;10.82;54.72
41234;BME280;26968;42.686;23.352;2023-04-10T08:00:53;95344.09;;;11.17;55.33
41234;BME280;26968;42.686;23.352;2023-04-10T08:03:18;95337.47;;;11.20;54.81
41234;BME280;26968;42.686;23.352;2023-04-10T08:05:44;95319.19;;;11.13;54.81
41234;BME280;26968;42.686;23.352;2023-04-10T08:08:09;95344.28;;;11.31;53.68
41234;BME280;26968;42.686;23.352;2023-04-10T08:10:36;95307.78;;;11.13;53.65
41234;BME280;26968;42.686;23.352;2023-04-10T08:13:04;95339.47;;;11.38;54.71
41234;BME280;26968;42.686;23.352;2023-04-10T08:15:30;95305.84;;;11.23;54.07
41234;BME280;26968;42.686;23.352;2023-04-10T08:17:55;95321.28;;;11.16;53.37
41234;BME280;26968;42.686;23.352;2023-04-10T08:20:21;95340.03;;;11.35;54.14
41234;BME280;26968;42.686;23.352;2023-04-10T08:22:47;95329.41;;;11.35;55.14
41234;BME280;26968;42.686;23.352;2023-04-10T08:25:12;95304.63;;;11.06;55.81
41234;BME280;26968;42.686;23.352;2023-04-10T08:27:38;95308.50;;;11.23;55.70
41234;BME280;26968;42.686;23.352;2023-04-10T08:30:04;95327.31;;;11.32;55.07
41234;BME280;26968;42.686;23.352;2023-04-10T08:32:29;95294.94;;;11.25;54.78
41234;BME280;26968;42.686;23.352;2023-04-10T08:34:55;95318.19;;;11.48;53.98
41234;BME280;26968;42.686;23.352;2023-04-10T08:37:21;95312.50;;;11.21;54.71
41234;BME280;26968;42.686;23.352;2023-04-10T08:39:46;95320.53;;;11.55;53.72
41234;BME280;26968;42.686;23.352;2023-04-10T08:42:12;95317.66;;;11.51;54.16
41234;BME280;26968;42.686;23.352;2023-04-10T08:44:37;95337.94;;;11.71;54.61
41234;BME280;26968;42.686;23.352;2023-04-10T08:47:04;95294.09;;;11.35;53.27
41234;BME280;26968;42.686;23.352;2023-04-10T08:52:13;95337.59;;;11.44;54.20
41234;BME280;26968;42.686;23.352;2023-04-10T08:54:42;95308.88;;;11.51;54.08
41234;BME280;26968;42.686;23.352;2023-04-10T08:57:15;95314.47;;;11.44;54.00
41234;BME280;26968;42.686;23.352;2023-04-10T08:59:49;95283.94;;;11.03;53.91
41234;BME280;26968;42.686;23.352;2023-04-10T09:02:18;95313.56;;;11.15;53.92
41234;BME280;26968;42.686;23.352;2023-04-10T09:04:50;95269.81;;;11.07;52.90
41234;BME280;26968;42.686;23.352;2023-04-10T09:07:17;95306.69;;;11.58;52.02
41234;BME280;26968;42.686;23.352;2023-04-10T09:09:43;95317.53;;;11.67;51.76
41234;BME280;26968;42.686;23.352;2023-04-10T09:12:09;95307.91;;;11.76;52.09
41234;BME280;26968;42.686;23.352;2023-04-10T09:14:35;95282.50;;;11.59;51.44
41234;BME280;26968;42.686;23.352;2023-04-10T09:17:20;95322.19;;;11.90;51.62
41234;BME280;26968;42.686;23.352;2023-04-10T09:19:50;95233.16;;;11.53;51.23
41234;BME280;26968;42.686;23.352;2023-04-10T09:22:17;95295.09;;;11.83;50.60
41234;BME280;26968;42.686;23.352;2023-04-10T09:24:44;95294.09;;;11.79;51.58
41234;BME280;26968;42.686;23.352;2023-04-10T09:27:27;95302.47;;;11.96;50.77
41234;BME280;26968;42.686;23.352;2023-04-10T09:29:54;95297.81;;;11.78;51.14
41234;BME280;26968;42.686;23.352;2023-04-10T09:32:42;95297.75;;;11.83;51.10
41234;BME280;26968;42.686;23.352;2023-04-10T09:35:12;95299.34;;;11.89;49.78
41234;BME280;26968;42.686;23.352;2023-04-10T09:37:39;95309.91;;;11.94;50.37
41234;BME280;26968;42.686;23.352;2023-04-10T09:40:19;95300.88;;;11.95;50.68
41234;BME280;26968;42.686;23.352;2023-04-10T09:42:44;95258.44;;;11.46;51.39
41234;BME280;26968;42.686;23.352;2023-04-10T09:45:10;95303.28;;;11.91;49.78
41234;BME280;26968;42.686;23.352;2023-04-10T09:47:36;95287.06;;;11.93;49.60
41234;BME280;26968;42.686;23.352;2023-04-10T09:50:02;95280.69;;;11.94;49.85
41234;BME280;26968;42.686;23.352;2023-04-10T09:52:29;95289.31;;;11.76;48.92
41234;BME280;26968;42.686;23.352;2023-04-10T09:55:03;95263.69;;;11.56;49.33
41234;BME280;26968;42.686;23.352;2023-04-10T09:57:30;95292.84;;;11.61;50.14
41234;BME280;26968;42.686;23.352;2023-04-10T10:00:04;95292.56;;;12.02;49.01
41234;BME280;26968;42.686;23.352;2023-04-10T10:02:36;95286.00;;;12.23;48.88
41234;BME280;26968;42.686;23.352;2023-04-10T10:05:04;95277.03;;;12.43;48.21
41234;BME280;26968;42.686;23.352;2023-04-10T10:07:30;95261.00;;;12.48;48.11
41234;BME280;26968;42.686;23.352;2023-04-10T10:09:57;95223.16;;;12.56;47.47
41234;BME280;26968;42.686;23.352;2023-04-10T10:12:32;95284.72;;;13.16;46.76
41234;BME280;26968;42.686;23.352;2023-04-10T10:17:28;95275.09;;;12.96;46.02
41234;BME280;26968;42.686;23.352;2023-04-10T10:20:03;95222.16;;;12.70;45.93
41234;BME280;26968;42.686;23.352;2023-04-10T10:22:29;95251.34;;;12.99;46.04
41234;BME280;26968;42.686;23.352;2023-04-10T10:24:55;95221.81;;;12.77;46.38
41234;BME280;26968;42.686;23.352;2023-04-10T10:27:22;95259.59;;;12.98;46.30
41234;BME280;26968;42.686;23.352;2023-04-10T10:29:49;95232.66;;;12.38;48.37
41234;BME280;26968;42.686;23.352;2023-04-10T10:32:17;95261.00;;;12.71;48.35
41234;BME280;26968;42.686;23.352;2023-04-10T10:34:43;95239.66;;;12.76;47.17
41234;BME280;26968;42.686;23.352;2023-04-10T10:37:10;95254.78;;;13.42;46.86
41234;BME280;26968;42.686;23.352;2023-04-10T10:43:11;95219.22;;;13.66;44.47
41234;BME280;26968;42.686;23.352;2023-04-10T10:46:00;95251.88;;;13.90;44.71
41234;BME280;26968;42.686;23.352;2023-04-10T10:48:27;95214.22;;;13.45;44.61
41234;BME280;26968;42.686;23.352;2023-04-10T10:50:58;95170.50;;;13.14;45.63
41234;BME280;26968;42.686;23.352;2023-04-10T10:58:54;95230.78;;;13.61;44.80
41234;BME280;26968;42.686;23.352;2023-04-10T11:01:21;95177.44;;;13.47;44.18
41234;BME280;26968;42.686;23.352;2023-04-10T11:03:47;95228.44;;;13.73;44.94
41234;BME280;26968;42.686;23.352;2023-04-10T11:06:17;95199.22;;;13.82;43.54
41234;BME280;26968;42.686;23.352;2023-04-10T11:08:48;95224.03;;;14.42;42.78
41234;BME280;26968;42.686;23.352;2023-04-10T11:11:20;95214.94;;;14.84;41.93
41234;BME280;26968;42.686;23.352;2023-04-10T11:16:41;95189.25;;;15.11;40.57
41234;BME280;26968;42.686;23.352;2023-04-10T11:19:10;95209.13;;;15.18;40.97
41234;BME280;26968;42.686;23.352;2023-04-10T11:22:01;95212.78;;;15.22;40.71
41234;BME280;26968;42.686;23.352;2023-04-10T11:24:28;95210.97;;;14.82;41.31
41234;BME280;26968;42.686;23.352;2023-04-10T11:26:54;95176.50;;;14.17;42.49
41234;BME280;26968;42.686;23.352;2023-04-10T11:32:00;95208.06;;;13.96;42.28
41234;BME280;26968;42.686;23.352;2023-04-10T11:34:25;95158.03;;;13.61;42.96
41234;BME280;26968;42.686;23.352;2023-04-10T11:37:00;95208.56;;;14.12;42.86
41234;BME280;26968;42.686;23.352;2023-04-10T11:39:28;95169.56;;;14.02;43.51
41234;BME280;26968;42.686;23.352;2023-04-10T11:41:55;95189.16;;;14.39;43.76
41234;BME280;26968;42.686;23.352;2023-04-10T11:44:28;95194.41;;;14.71;42.28
41234;BME280;26968;42.686;23.352;2023-04-10T11:46:55;95176.41;;;14.63;42.04
41234;BME280;26968;42.686;23.352;2023-04-10T11:49:29;95192.13;;;14.64;40.71
41234;BME280;26968;42.686;23.352;2023-04-10T11:51:55;95184.09;;;14.37;41.24
41234;BME280;26968;42.686;23.352;2023-04-10T11:54:28;95190.22;;;14.65;41.18
41234;BME280;26968;42.686;23.352;2023-04-10T11:59:24;95194.97;;;14.82;41.84
41234;BME280;26968;42.686;23.352;2023-04-10T12:01:50;95181.81;;;14.85;41.44
41234;BME280;26968;42.686;23.352;2023-04-10T12:04:21;95164.25;;;14.43;41.46
41234;BME280;26968;42.686;23.352;2023-04-10T12:06:48;95152.97;;;14.19;41.88
41234;BME280;26968;42.686;23.352;2023-04-10T12:09:15;95133.59;;;14.00;43.01
41234;BME280;26968;42.686;23.352;2023-04-10T12:14:18;95164.53;;;13.55;45.45
41234;BME280;26968;42.686;23.352;2023-04-10T12:16:44;95183.44;;;13.02;48.86
41234;BME280;26968;42.686;23.352;2023-04-10T12:19:11;95196.50;;;12.98;55.79
41234;BME280;26968;42.686;23.352;2023-04-10T12:21:38;95209.75;;;12.85;57.62
41234;BME280;26968;42.686;23.352;2023-04-10T12:24:05;95208.81;;;12.52;60.69
41234;BME280;26968;42.686;23.352;2023-04-10T12:26:30;95208.22;;;11.83;64.96
41234;BME280;26968;42.686;23.352;2023-04-10T12:28:56;95216.06;;;11.65;66.83
41234;BME280;26968;42.686;23.352;2023-04-10T12:31:33;95209.38;;;11.38;67.51
41234;BME280;26968;42.686;23.352;2023-04-10T12:34:00;95221.91;;;10.89;70.66
41234;BME280;26968;42.686;23.352;2023-04-10T12:36:27;95177.44;;;10.06;70.51
41234;BME280;26968;42.686;23.352;2023-04-10T12:39:00;95202.63;;;9.98;72.78
41234;BME280;26968;42.686;23.352;2023-04-10T12:41:32;95210.81;;;9.92;72.86
41234;BME280;26968;42.686;23.352;2023-04-10T12:44:12;95172.50;;;9.49;69.61
41234;BME280;26968;42.686;23.352;2023-04-10T12:46:38;95184.94;;;9.28;68.06
41234;BME280;26968;42.686;23.352;2023-04-10T12:49:17;95192.63;;;9.45;70.16
41234;BME280;26968;42.686;23.352;2023-04-10T12:51:50;95156.91;;;9.22;70.46
41234;BME280;26968;42.686;23.352;2023-04-10T12:54:45;95156.34;;;9.40;74.23
41234;BME280;26968;42.686;23.352;2023-04-10T12:57:25;95203.44;;;9.84;73.68
41234;BME280;26968;42.686;23.352;2023-04-10T12:59:51;95125.66;;;9.44;75.44
41234;BME280;26968;42.686;23.352;2023-04-10T13:02:17;95192.22;;;10.07;77.41
41234;BME280;26968;42.686;23.352;2023-04-10T13:04:45;95166.81;;;10.11;74.81
41234;BME280;26968;42.686;23.352;2023-04-10T13:07:10;95146.13;;;10.18;73.52
41234;BME280;26968;42.686;23.352;2023-04-10T13:09:36;95173.00;;;10.56;71.63
41234;BME280;26968;42.686;23.352;2023-04-10T13:12:01;95125.44;;;10.69;70.68
41234;BME280;26968;42.686;23.352;2023-04-10T13:14:30;95163.91;;;11.11;70.73
41234;BME280;26968;42.686;23.352;2023-04-10T13:16:57;95147.94;;;11.21;67.62
41234;BME280;26968;42.686;23.352;2023-04-10T13:19:22;95154.41;;;11.39;68.33
41234;BME280;26968;42.686;23.352;2023-04-10T13:21:48;95126.59;;;11.89;66.82
41234;BME280;26968;42.686;23.352;2023-04-10T13:24:15;95164.03;;;12.59;70.70
41234;BME280;26968;42.686;23.352;2023-04-10T13:26:41;95139.75;;;12.65;66.35
41234;BME280;26968;42.686;23.352;2023-04-10T13:29:06;95126.97;;;12.86;64.28